sensor_id;sensor_type;location;lat;lon;timestamp;pressure;altitude;pressure_sealevel;temperature;humidity
19108;BME280;9686;48.832;9.126;2022-07-23T00:02:19;98090.88;;;26.39;66.42
19108;BME280;9686;48.832;9.126;2022-07-23T00:04:44;98086.38;;;26.40;65.88
19108;BME280;9686;48.832;9.126;2022-07-23T00:07:10;98088.72;;;26.45;64.12
19108;BME280;9686;48.832;9.126;2022-07-23T00:09:35;98085.19;;;26.44;64.73
19108;BME280;9686;48.832;9.126;2022-07-23T00:12:01;98083.72;;;26.40;64.77
19108;BME280;9686;48.832;9.126;2022-07-23T00:14:26;98081.78;;;26.42;64.99
19108;BME280;9686;48.832;9.126;2022-07-23T00:16:51;98080.31;;;26.38;65.48
19108;BME280;9686;48.832;9.126;2022-07-23T00:19:17;98083.38;;;26.45;64.02
19108;BME280;9686;48.832;9.126;2022-07-23T00:21:42;98080.19;;;26.39;65.58
19108;BME280;9686;48.832;9.126;2022-07-23T00:24:08;98069.25;;;26.42;64.38
19108;BME280;9686;48.832;9.126;2022-07-23T00:26:33;98082.00;;;26.39;65.65
19108;BME280;9686;48.832;9.126;2022-07-23T00:28:58;98077.19;;;26.31;66.58
19108;BME280;9686;48.832;9.126;2022-07-23T00:31:24;98070.25;;;26.29;66.81
19108;BME280;9686;48.832;9.126;2022-07-23T00:33:49;98064.78;;;26.30;66.52
19108;BME280;9686;48.832;9.126;2022-07-23T00:36:14;98064.69;;;26.32;66.51
19108;BME280;9686;48.832;9.126;2022-07-23T00:38:40;98058.91;;;26.25;67.15
19108;BME280;9686;48.832;9.126;2022-07-23T00:41:05;98062.53;;;26.24;69.27
19108;BME280;9686;48.832;9.126;2022-07-23T00:43:30;98065.84;;;26.28;67.60
19108;BME280;9686;48.832;9.126;2022-07-23T00:45:56;98067.78;;;26.26;68.90
19108;BME280;9686;48.832;9.126;2022-07-23T00:48:21;98060.81;;;26.23;68.81
19108;BME280;9686;48.832;9.126;2022-07-23T00:50:46;98040.13;;;26.14;72.08
19108;BME280;9686;48.832;9.126;2022-07-23T00:53:12;98037.44;;;26.14;70.44
19108;BME280;9686;48.832;9.126;2022-07-23T00:55:38;98053.19;;;26.06;70.94
19108;BME280;9686;48.832;9.126;2022-07-23T00:58:04;98050.75;;;26.03;70.19
19108;BME280;9686;48.832;9.126;2022-07-23T01:00:30;98043.34;;;26.06;68.98
19108;BME280;9686;48.832;9.126;2022-07-23T01:02:56;98037.47;;;26.01;70.81
19108;BME280;9686;48.832;9.126;2022-07-23T01:05:21;98051.66;;;26.02;69.16
19108;BME280;9686;48.832;9.126;2022-07-23T01:07:50;98047.72;;;25.95;73.12
19108;BME280;9686;48.832;9.126;2022-07-23T01:10:16;98051.25;;;25.95;70.09
19108;BME280;9686;48.832;9.126;2022-07-23T01:12:57;98057.69;;;25.93;72.81
19108;BME280;9686;48.832;9.126;2022-07-23T01:15:22;98046.13;;;25.92;71.35
19108;BME280;9686;48.832;9.126;2022-07-23T01:17:48;98048.06;;;25.90;75.25
19108;BME280;9686;48.832;9.126;2022-07-23T01:20:14;98030.66;;;25.85;74.90
19108;BME280;9686;48.832;9.126;2022-07-23T01:22:39;98010.78;;;25.76;78.65
19108;BME280;9686;48.832;9.126;2022-07-23T01:25:06;98019.75;;;25.75;76.44
19108;BME280;9686;48.832;9.126;2022-07-23T01:27:31;98027.69;;;25.76;73.05
19108;BME280;9686;48.832;9.126;2022-07-23T01:29:57;98011.66;;;25.76;74.48
19108;BME280;9686;48.832;9.126;2022-07-23T01:32:22;98017.31;;;25.72;75.91
19108;BME280;9686;48.832;9.126;2022-07-23T01:34:47;98017.53;;;25.69;76.07
19108;BME280;9686;48.832;9.126;2022-07-23T01:37:13;98016.84;;;25.65;79.80
19108;BME280;9686;48.832;9.126;2022-07-23T01:39:38;98011.84;;;25.61;75.12
19108;BME280;9686;48.832;9.126;2022-07-23T01:42:04;98007.91;;;25.54;80.21
19108;BME280;9686;48.832;9.126;2022-07-23T01:44:30;98011.72;;;25.49;81.34
19108;BME280;9686;48.832;9.126;2022-07-23T01:46:56;98010.13;;;25.47;84.46
19108;BME280;9686;48.832;9.126;2022-07-23T01:49:22;98007.88;;;25.41;84.76
19108;BME280;9686;48.832;9.126;2022-07-23T01:51:47;98026.69;;;25.39;83.45
19108;BME280;9686;48.832;9.126;2022-07-23T01:54:30;98025.41;;;25.32;83.72
19108;BME280;9686;48.832;9.126;2022-07-23T01:56:56;98023.59;;;25.33;85.48
19108;BME280;9686;48.832;9.126;2022-07-23T01:59:22;98026.88;;;25.24;88.88
19108;BME280;9686;48.832;9.126;2022-07-23T02:01:47;98022.50;;;25.23;89.69
19108;BME280;9686;48.832;9.126;2022-07-23T02:04:15;98006.59;;;25.21;87.92
19108;BME280;9686;48.832;9.126;2022-07-23T02:06:41;98005.94;;;25.05;90.05
19108;BME280;9686;48.832;9.126;2022-07-23T02:09:06;98039.88;;;25.03;88.22
19108;BME280;9686;48.832;9.126;2022-07-23T02:11:32;98073.38;;;25.07;86.32
19108;BME280;9686;48.832;9.126;2022-07-23T02:13:57;98075.31;;;25.05;85.80
19108;BME280;9686;48.832;9.126;2022-07-23T02:16:22;98068.69;;;25.10;87.12
19108;BME280;9686;48.832;9.126;2022-07-23T02:18:48;98059.84;;;24.96;90.27
19108;BME280;9686;48.832;9.126;2022-07-23T02:21:13;98059.44;;;24.89;88.91
19108;BME280;9686;48.832;9.126;2022-07-23T02:23:38;98064.22;;;24.84;88.45
19108;BME280;9686;48.832;9.126;2022-07-23T02:26:04;98064.53;;;24.79;94.78
19108;BME280;9686;48.832;9.126;2022-07-23T02:28:29;98058.63;;;24.74;94.84
19108;BME280;9686;48.832;9.126;2022-07-23T02:30:54;98063.06;;;24.61;93.75
19108;BME280;9686;48.832;9.126;2022-07-23T02:33:20;98080.22;;;24.57;97.53
19108;BME280;9686;48.832;9.126;2022-07-23T02:35:45;98080.09;;;24.58;93.70
19108;BME280;9686;48.832;9.126;2022-07-23T02:38:10;98102.19;;;24.60;91.92
19108;BME280;9686;48.832;9.126;2022-07-23T02:40:36;98114.16;;;24.68;93.83
19108;BME280;9686;48.832;9.126;2022-07-23T02:43:01;98117.97;;;24.64;94.77
19108;BME280;9686;48.832;9.126;2022-07-23T02:45:27;98114.75;;;24.58;97.61
19108;BME280;9686;48.832;9.126;2022-07-23T02:47:52;98118.69;;;24.53;95.00
19108;BME280;9686;48.832;9.126;2022-07-23T02:50:18;98123.56;;;24.46;99.77
19108;BME280;9686;48.832;9.126;2022-07-23T02:52:43;98122.31;;;24.52;97.82
19108;BME280;9686;48.832;9.126;2022-07-23T02:55:08;98124.28;;;24.63;100.00
19108;BME280;9686;48.832;9.126;2022-07-23T02:57:34;98132.75;;;24.55;100.00
19108;BME280;9686;48.832;9.126;2022-07-23T02:59:59;98133.91;;;24.51;100.00
19108;BME280;9686;48.832;9.126;2022-07-23T03:02:25;98133.06;;;24.36;100.00
19108;BME280;9686;48.832;9.126;2022-07-23T03:04:51;98135.72;;;24.36;100.00
19108;BME280;9686;48.832;9.126;2022-07-23T03:07:17;98135.06;;;24.47;95.62
19108;BME280;9686;48.832;9.126;2022-07-23T03:09:42;98138.66;;;24.46;93.59
19108;BME280;9686;48.832;9.126;2022-07-23T03:12:08;98142.38;;;24.43;96.63
19108;BME280;9686;48.832;9.126;2022-07-23T03:14:33;98141.31;;;24.46;95.57
19108;BME280;9686;48.832;9.126;2022-07-23T03:16:59;98146.19;;;24.53;94.53
19108;BME280;9686;48.832;9.126;2022-07-23T03:19:25;98150.47;;;24.56;96.91
19108;BME280;9686;48.832;9.126;2022-07-23T03:21:51;98134.47;;;24.56;95.93
19108;BME280;9686;48.832;9.126;2022-07-23T03:24:16;98144.94;;;24.59;94.78
19108;BME280;9686;48.832;9.126;2022-07-23T03:26:43;98127.22;;;24.58;96.04
19108;BME280;9686;48.832;9.126;2022-07-23T03:29:09;98123.25;;;24.51;98.43
19108;BME280;9686;48.832;9.126;2022-07-23T03:31:35;98124.47;;;24.45;100.00
19108;BME280;9686;48.832;9.126;2022-07-23T03:34:00;98123.81;;;24.42;97.79
19108;BME280;9686;48.832;9.126;2022-07-23T03:36:26;98131.47;;;24.34;100.00
19108;BME280;9686;48.832;9.126;2022-07-23T03:38:52;98133.63;;;24.27;100.00
19108;BME280;9686;48.832;9.126;2022-07-23T03:41:19;98132.38;;;24.18;100.00
19108;BME280;9686;48.832;9.126;2022-07-23T03:43:44;98135.13;;;24.17;100.00
19108;BME280;9686;48.832;9.126;2022-07-23T03:46:10;98130.78;;;24.02;100.00
19108;BME280;9686;48.832;9.126;2022-07-23T03:48:35;98129.44;;;23.94;100.00
19108;BME280;9686;48.832;9.126;2022-07-23T03:51:01;98124.97;;;23.95;100.00
19108;BME280;9686;48.832;9.126;2022-07-23T03:53:26;98126.69;;;23.96;100.00
19108;BME280;9686;48.832;9.126;2022-07-23T03:55:51;98123.44;;;23.91;100.00
19108;BME280;9686;48.832;9.126;2022-07-23T03:58:17;98132.94;;;23.81;100.00
19108;BME280;9686;48.832;9.126;2022-07-23T04:00:42;98130.66;;;23.75;100.00
19108;BME280;9686;48.832;9.126;2022-07-23T04:03:07;98124.28;;;23.77;100.00
19108;BME280;9686;48.832;9.126;2022-07-23T04:05:33;98136.50;;;23.65;100.00
19108;BME280;9686;48.832;9.126;2022-07-23T04:07:58;98136.28;;;23.54;100.00
19108;BME280;9686;48.832;9.126;2022-07-23T04:10:24;98136.56;;;23.50;100.00
19108;BME280;9686;48.832;9.126;2022-07-23T04:12:49;98136.31;;;23.38;100.00
19108;BME280;9686;48.832;9.126;2022-07-23T04:15:14;98147.72;;;23.41;100.00
19108;BME280;9686;48.832;9.126;2022-07-23T04:17:40;98149.03;;;23.33;100.00
19108;BME280;9686;48.832;9.126;2022-07-23T04:20:05;98147.56;;;23.44;100.00
19108;BME280;9686;48.832;9.126;2022-07-23T04:22:31;98145.00;;;23.42;100.00
19108;BME280;9686;48.832;9.126;2022-07-23T04:24:56;98146.25;;;23.51;100.00
19108;BME280;9686;48.832;9.126;2022-07-23T04:27:22;98148.34;;;23.46;100.00
19108;BME280;9686;48.832;9.126;2022-07-23T04:29:47;98143.97;;;23.45;100.00
19108;BME280;9686;48.832;9.126;2022-07-23T04:32:12;98142.41;;;23.41;100.00
19108;BME280;9686;48.832;9.126;2022-07-23T04:34:37;98152.56;;;23.34;100.00
19108;BME280;9686;48.832;9.126;2022-07-23T04:37:03;98146.88;;;23.40;100.00
19108;BME280;9686;48.832;9.126;2022-07-23T04:39:28;98153.56;;;23.47;100.00
19108;BME280;9686;48.832;9.126;2022-07-23T04:41:54;98150.47;;;23.39;100.00
19108;BME280;9686;48.832;9.126;2022-07-23T04:44:19;98154.34;;;23.49;100.00
19108;BME280;9686;48.832;9.126;2022-07-23T04:46:45;98149.00;;;23.49;100.00
19108;BME280;9686;48.832;9.126;2022-07-23T04:49:10;98152.25;;;23.54;100.00
19108;BME280;9686;48.832;9.126;2022-07-23T04:51:35;98153.13;;;23.39;100.00
19108;BME280;9686;48.832;9.126;2022-07-23T04:54:01;98151.66;;;23.49;100.00
19108;BME280;9686;48.832;9.126;2022-07-23T04:56:26;98156.91;;;23.51;100.00
19108;BME280;9686;48.832;9.126;2022-07-23T04:58:51;98148.81;;;23.52;100.00
19108;BME280;9686;48.832;9.126;2022-07-23T05:01:17;98157.50;;;23.56;100.00
19108;BME280;9686;48.832;9.126;2022-07-23T05:03:42;98159.22;;;23.57;100.00
19108;BME280;9686;48.832;9.126;2022-07-23T05:06:07;98156.19;;;23.63;100.00
19108;BME280;9686;48.832;9.126;2022-07-23T05:08:33;98149.56;;;23.70;100.00
19108;BME280;9686;48.832;9.126;2022-07-23T05:10:58;98158.31;;;23.72;100.00
19108;BME280;9686;48.832;9.126;2022-07-23T05:13:24;98165.06;;;23.78;100.00
19108;BME280;9686;48.832;9.126;2022-07-23T05:15:49;98166.22;;;23.88;100.00
19108;BME280;9686;48.832;9.126;2022-07-23T05:18:14;98163.13;;;23.95;100.00
19108;BME280;9686;48.832;9.126;2022-07-23T05:20:40;98164.25;;;24.06;100.00
19108;BME280;9686;48.832;9.126;2022-07-23T05:23:06;98165.47;;;24.14;100.00
19108;BME280;9686;48.832;9.126;2022-07-23T05:25:32;98175.34;;;24.28;100.00
19108;BME280;9686;48.832;9.126;2022-07-23T05:27:57;98177.72;;;24.33;100.00
19108;BME280;9686;48.832;9.126;2022-07-23T05:30:22;98178.84;;;24.43;100.00
19108;BME280;9686;48.832;9.126;2022-07-23T05:32:48;98190.66;;;24.39;100.00
19108;BME280;9686;48.832;9.126;2022-07-23T05:35:13;98182.25;;;24.45;100.00
19108;BME280;9686;48.832;9.126;2022-07-23T05:37:39;98179.22;;;24.51;100.00
19108;BME280;9686;48.832;9.126;2022-07-23T05:40:06;98186.25;;;24.66;100.00
19108;BME280;9686;48.832;9.126;2022-07-23T05:42:33;98191.78;;;24.63;100.00
19108;BME280;9686;48.832;9.126;2022-07-23T05:44:58;98195.75;;;24.70;100.00
19108;BME280;9686;48.832;9.126;2022-07-23T05:47:24;98206.31;;;24.72;100.00
19108;BME280;9686;48.832;9.126;2022-07-23T05:49:49;98211.09;;;24.67;100.00
19108;BME280;9686;48.832;9.126;2022-07-23T05:52:14;98208.41;;;24.81;100.00
19108;BME280;9686;48.832;9.126;2022-07-23T05:54:40;98215.09;;;24.74;100.00
19108;BME280;9686;48.832;9.126;2022-07-23T05:57:05;98230.50;;;24.69;100.00
19108;BME280;9686;48.832;9.126;2022-07-23T05:59:30;98234.03;;;24.83;100.00
19108;BME280;9686;48.832;9.126;2022-07-23T06:01:56;98237.66;;;24.68;100.00
19108;BME280;9686;48.832;9.126;2022-07-23T06:04:21;98237.47;;;24.71;100.00
19108;BME280;9686;48.832;9.126;2022-07-23T06:06:46;98239.28;;;24.71;100.00
19108;BME280;9686;48.832;9.126;2022-07-23T06:09:12;98237.75;;;24.67;100.00
19108;BME280;9686;48.832;9.126;2022-07-23T06:11:39;98226.91;;;24.55;100.00
19108;BME280;9686;48.832;9.126;2022-07-23T06:14:04;98221.00;;;24.65;100.00
19108;BME280;9686;48.832;9.126;2022-07-23T06:16:30;98214.63;;;24.53;100.00
19108;BME280;9686;48.832;9.126;2022-07-23T06:18:55;98203.69;;;24.57;100.00
19108;BME280;9686;48.832;9.126;2022-07-23T06:21:20;98195.88;;;24.54;100.00
19108;BME280;9686;48.832;9.126;2022-07-23T06:23:46;98194.38;;;24.50;100.00
19108;BME280;9686;48.832;9.126;2022-07-23T06:26:11;98203.50;;;24.60;100.00
19108;BME280;9686;48.832;9.126;2022-07-23T06:28:36;98214.06;;;24.62;96.35
19108;BME280;9686;48.832;9.126;2022-07-23T06:31:01;98215.88;;;24.76;93.09
19108;BME280;9686;48.832;9.126;2022-07-23T06:33:27;98212.16;;;24.78;96.38
19108;BME280;9686;48.832;9.126;2022-07-23T06:35:52;98217.53;;;24.91;93.39
19108;BME280;9686;48.832;9.126;2022-07-23T06:38:18;98232.03;;;24.87;87.34
19108;BME280;9686;48.832;9.126;2022-07-23T06:40:43;98221.91;;;24.92;88.36
19108;BME280;9686;48.832;9.126;2022-07-23T06:43:10;98225.34;;;24.94;89.01
19108;BME280;9686;48.832;9.126;2022-07-23T06:45:35;98236.41;;;24.88;90.34
19108;BME280;9686;48.832;9.126;2022-07-23T06:48:01;98240.28;;;24.97;89.46
19108;BME280;9686;48.832;9.126;2022-07-23T06:50:27;98246.22;;;24.87;88.58
19108;BME280;9686;48.832;9.126;2022-07-23T06:52:53;98254.50;;;24.69;95.66
19108;BME280;9686;48.832;9.126;2022-07-23T06:55:18;98275.19;;;24.65;94.82
19108;BME280;9686;48.832;9.126;2022-07-23T06:57:43;98268.72;;;24.55;94.49
19108;BME280;9686;48.832;9.126;2022-07-23T07:00:09;98280.22;;;24.41;95.58
19108;BME280;9686;48.832;9.126;2022-07-23T07:02:35;98284.31;;;24.33;98.02
19108;BME280;9686;48.832;9.126;2022-07-23T07:05:01;98283.03;;;24.24;100.00
19108;BME280;9686;48.832;9.126;2022-07-23T07:07:26;98273.03;;;24.27;98.72
19108;BME280;9686;48.832;9.126;2022-07-23T07:09:51;98276.50;;;24.29;100.00
19108;BME280;9686;48.832;9.126;2022-07-23T07:12:17;98275.88;;;24.24;100.00
19108;BME280;9686;48.832;9.126;2022-07-23T07:14:42;98277.84;;;24.07;100.00
19108;BME280;9686;48.832;9.126;2022-07-23T07:17:07;98269.28;;;24.02;100.00
19108;BME280;9686;48.832;9.126;2022-07-23T07:19:33;98253.41;;;23.84;100.00
19108;BME280;9686;48.832;9.126;2022-07-23T07:21:58;98225.94;;;23.84;100.00
19108;BME280;9686;48.832;9.126;2022-07-23T07:24:24;98236.41;;;23.87;100.00
19108;BME280;9686;48.832;9.126;2022-07-23T07:26:49;98266.19;;;23.63;100.00
19108;BME280;9686;48.832;9.126;2022-07-23T07:29:14;98279.84;;;23.26;100.00
19108;BME280;9686;48.832;9.126;2022-07-23T07:31:40;98278.97;;;23.10;100.00
19108;BME280;9686;48.832;9.126;2022-07-23T07:34:05;98279.03;;;22.59;100.00
19108;BME280;9686;48.832;9.126;2022-07-23T07:36:30;98279.72;;;22.63;100.00
19108;BME280;9686;48.832;9.126;2022-07-23T07:38:56;98277.56;;;22.54;100.00
19108;BME280;9686;48.832;9.126;2022-07-23T07:41:21;98280.56;;;22.48;100.00
19108;BME280;9686;48.832;9.126;2022-07-23T07:43:51;98291.56;;;22.57;100.00
19108;BME280;9686;48.832;9.126;2022-07-23T07:46:16;98302.00;;;22.60;100.00
19108;BME280;9686;48.832;9.126;2022-07-23T07:48:42;98302.56;;;22.67;100.00
19108;BME280;9686;48.832;9.126;2022-07-23T07:51:07;98314.25;;;22.80;100.00
19108;BME280;9686;48.832;9.126;2022-07-23T07:53:33;98319.66;;;22.78;100.00
19108;BME280;9686;48.832;9.126;2022-07-23T07:55:58;98325.84;;;22.62;100.00
19108;BME280;9686;48.832;9.126;2022-07-23T07:58:24;98335.94;;;22.72;100.00
19108;BME280;9686;48.832;9.126;2022-07-23T08:00:49;98338.19;;;22.80;100.00
19108;BME280;9686;48.832;9.126;2022-07-23T08:03:14;98314.34;;;22.78;100.00
19108;BME280;9686;48.832;9.126;2022-07-23T08:05:40;98319.56;;;22.97;100.00
19108;BME280;9686;48.832;9.126;2022-07-23T08:08:05;98321.28;;;23.14;100.00
19108;BME280;9686;48.832;9.126;2022-07-23T08:10:31;98321.19;;;23.16;100.00
19108;BME280;9686;48.832;9.126;2022-07-23T08:12:57;98319.84;;;23.24;100.00
19108;BME280;9686;48.832;9.126;2022-07-23T08:15:23;98327.03;;;23.38;100.00
19108;BME280;9686;48.832;9.126;2022-07-23T08:17:49;98320.34;;;23.31;100.00
19108;BME280;9686;48.832;9.126;2022-07-23T08:20:17;98328.16;;;23.34;100.00
19108;BME280;9686;48.832;9.126;2022-07-23T08:22:47;98331.50;;;23.37;100.00
19108;BME280;9686;48.832;9.126;2022-07-23T08:25:14;98310.13;;;23.39;100.00
19108;BME280;9686;48.832;9.126;2022-07-23T08:27:40;98309.03;;;23.59;100.00
19108;BME280;9686;48.832;9.126;2022-07-23T08:30:06;98323.59;;;23.83;100.00
19108;BME280;9686;48.832;9.126;2022-07-23T08:32:32;98318.69;;;23.91;100.00
19108;BME280;9686;48.832;9.126;2022-07-23T08:34:57;98316.16;;;24.04;100.00
19108;BME280;9686;48.832;9.126;2022-07-23T08:37:23;98313.81;;;24.14;100.00
19108;BME280;9686;48.832;9.126;2022-07-23T08:39:48;98305.44;;;24.20;100.00
19108;BME280;9686;48.832;9.126;2022-07-23T08:42:14;98309.13;;;24.33;100.00
19108;BME280;9686;48.832;9.126;2022-07-23T08:44:44;98304.88;;;24.59;100.00
19108;BME280;9686;48.832;9.126;2022-07-23T08:47:11;98296.59;;;24.92;100.00
19108;BME280;9686;48.832;9.126;2022-07-23T08:49:38;98304.31;;;24.97;100.00
19108;BME280;9686;48.832;9.126;2022-07-23T08:52:04;98305.59;;;25.05;100.00
19108;BME280;9686;48.832;9.126;2022-07-23T08:54:31;98314.31;;;25.21;100.00
19108;BME280;9686;48.832;9.126;2022-07-23T08:56:56;98303.53;;;25.37;100.00
19108;BME280;9686;48.832;9.126;2022-07-23T08:59:22;98293.31;;;25.44;100.00
19108;BME280;9686;48.832;9.126;2022-07-23T09:01:47;98306.72;;;25.57;94.55
19108;BME280;9686;48.832;9.126;2022-07-23T09:04:12;98303.44;;;25.66;92.93
19108;BME280;9686;48.832;9.126;2022-07-23T09:06:41;98297.34;;;25.78;89.68
19108;BME280;9686;48.832;9.126;2022-07-23T09:09:18;98304.84;;;25.86;83.42
19108;BME280;9686;48.832;9.126;2022-07-23T09:11:48;98312.00;;;25.85;81.80
19108;BME280;9686;48.832;9.126;2022-07-23T09:14:41;98306.22;;;25.91;85.95
19108;BME280;9686;48.832;9.126;2022-07-23T09:17:15;98308.50;;;25.97;92.20
19108;BME280;9686;48.832;9.126;2022-07-23T09:19:42;98306.28;;;26.17;85.13
19108;BME280;9686;48.832;9.126;2022-07-23T09:22:25;98298.59;;;26.12;88.06
19108;BME280;9686;48.832;9.126;2022-07-23T09:25:17;98287.31;;;26.47;78.97
19108;BME280;9686;48.832;9.126;2022-07-23T09:27:57;98293.84;;;26.42;77.47
19108;BME280;9686;48.832;9.126;2022-07-23T09:30:27;98299.31;;;26.54;79.22
19108;BME280;9686;48.832;9.126;2022-07-23T09:33:14;98297.50;;;26.67;78.43
19108;BME280;9686;48.832;9.126;2022-07-23T09:38:14;98299.00;;;26.58;76.16
19108;BME280;9686;48.832;9.126;2022-07-23T09:40:40;98301.91;;;26.55;75.13
19108;BME280;9686;48.832;9.126;2022-07-23T09:43:05;98298.56;;;26.52;76.65
19108;BME280;9686;48.832;9.126;2022-07-23T09:45:30;98292.59;;;26.61;74.88
19108;BME280;9686;48.832;9.126;2022-07-23T09:48:16;98305.09;;;26.48;77.61
19108;BME280;9686;48.832;9.126;2022-07-23T09:50:43;98295.69;;;26.67;74.37
19108;BME280;9686;48.832;9.126;2022-07-23T09:53:09;98293.44;;;26.87;69.95
19108;BME280;9686;48.832;9.126;2022-07-23T09:55:36;98294.72;;;27.07;65.29
19108;BME280;9686;48.832;9.126;2022-07-23T09:58:07;98290.91;;;27.22;66.45
19108;BME280;9686;48.832;9.126;2022-07-23T10:00:42;98294.09;;;27.40;64.75
19108;BME280;9686;48.832;9.126;2022-07-23T10:03:10;98293.38;;;27.61;65.26
19108;BME280;9686;48.832;9.126;2022-07-23T10:05:37;98289.88;;;27.48;66.92
19108;BME280;9686;48.832;9.126;2022-07-23T10:08:03;98292.72;;;27.71;59.93
19108;BME280;9686;48.832;9.126;2022-07-23T10:10:28;98290.91;;;27.82;60.79
19108;BME280;9686;48.832;9.126;2022-07-23T10:12:56;98293.31;;;27.74;60.00
19108;BME280;9686;48.832;9.126;2022-07-23T10:15:24;98298.06;;;27.71;59.72
19108;BME280;9686;48.832;9.126;2022-07-23T10:17:51;98297.44;;;27.67;56.61
19108;BME280;9686;48.832;9.126;2022-07-23T10:20:16;98298.81;;;27.73;57.98
19108;BME280;9686;48.832;9.126;2022-07-23T10:22:50;98301.38;;;27.74;58.79
19108;BME280;9686;48.832;9.126;2022-07-23T10:25:27;98293.91;;;27.67;62.68
19108;BME280;9686;48.832;9.126;2022-07-23T10:28:28;98295.66;;;27.79;64.92
19108;BME280;9686;48.832;9.126;2022-07-23T10:39:08;98294.25;;;28.21;55.62
19108;BME280;9686;48.832;9.126;2022-07-23T10:41:41;98289.75;;;28.21;56.30
19108;BME280;9686;48.832;9.126;2022-07-23T10:44:12;98288.59;;;28.37;57.91
19108;BME280;9686;48.832;9.126;2022-07-23T10:49:28;98288.13;;;28.43;52.90
19108;BME280;9686;48.832;9.126;2022-07-23T10:52:25;98282.41;;;28.47;56.09
19108;BME280;9686;48.832;9.126;2022-07-23T10:57:27;98276.91;;;28.60;55.62
19108;BME280;9686;48.832;9.126;2022-07-23T11:02:41;98283.78;;;28.75;56.30
19108;BME280;9686;48.832;9.126;2022-07-23T11:05:09;98270.72;;;28.82;57.13
19108;BME280;9686;48.832;9.126;2022-07-23T11:07:37;98271.09;;;28.89;53.49
19108;BME280;9686;48.832;9.126;2022-07-23T11:10:35;98281.44;;;28.82;55.02
19108;BME280;9686;48.832;9.126;2022-07-23T11:13:37;98284.19;;;28.93;53.18
19108;BME280;9686;48.832;9.126;2022-07-23T11:16:45;98278.63;;;28.83;52.30
19108;BME280;9686;48.832;9.126;2022-07-23T11:19:11;98275.00;;;28.73;53.49
19108;BME280;9686;48.832;9.126;2022-07-23T11:24:07;98271.50;;;28.95;53.76
19108;BME280;9686;48.832;9.126;2022-07-23T11:32:00;98262.94;;;29.01;51.77
19108;BME280;9686;48.832;9.126;2022-07-23T11:37:06;98283.69;;;28.99;53.36
19108;BME280;9686;48.832;9.126;2022-07-23T11:39:32;98272.31;;;29.07;54.63
19108;BME280;9686;48.832;9.126;2022-07-23T11:41:58;98270.97;;;29.12;54.89
19108;BME280;9686;48.832;9.126;2022-07-23T11:44:46;98266.69;;;29.10;53.75
19108;BME280;9686;48.832;9.126;2022-07-23T11:47:12;98270.59;;;29.28;53.52
19108;BME280;9686;48.832;9.126;2022-07-23T11:49:38;98273.38;;;29.38;54.13
19108;BME280;9686;48.832;9.126;2022-07-23T11:52:10;98258.63;;;29.32;52.66
19108;BME280;9686;48.832;9.126;2022-07-23T11:54:47;98256.16;;;29.40;53.35
19108;BME280;9686;48.832;9.126;2022-07-23T11:57:12;98267.00;;;29.39;52.26
19108;BME280;9686;48.832;9.126;2022-07-23T11:59:38;98272.75;;;29.68;52.20
19108;BME280;9686;48.832;9.126;2022-07-23T12:02:05;98259.19;;;29.58;49.21
19108;BME280;9686;48.832;9.126;2022-07-23T12:04:38;98265.59;;;29.78;51.25
19108;BME280;9686;48.832;9.126;2022-07-23T12:07:08;98260.16;;;29.68;48.29
19108;BME280;9686;48.832;9.126;2022-07-23T12:09:47;98254.50;;;29.71;48.72
19108;BME280;9686;48.832;9.126;2022-07-23T12:12:12;98259.88;;;29.71;48.03
19108;BME280;9686;48.832;9.126;2022-07-23T12:17:19;98251.31;;;29.77;49.66
19108;BME280;9686;48.832;9.126;2022-07-23T12:19:45;98257.09;;;29.62;48.19
19108;BME280;9686;48.832;9.126;2022-07-23T12:22:11;98258.53;;;29.66;49.63
19108;BME280;9686;48.832;9.126;2022-07-23T12:24:56;98264.63;;;29.79;48.75
19108;BME280;9686;48.832;9.126;2022-07-23T12:27:22;98253.72;;;29.81;49.05
19108;BME280;9686;48.832;9.126;2022-07-23T12:29:48;98265.06;;;29.84;50.07
19108;BME280;9686;48.832;9.126;2022-07-23T12:32:18;98258.59;;;29.87;49.64
19108;BME280;9686;48.832;9.126;2022-07-23T12:34:44;98252.22;;;29.88;49.77
19108;BME280;9686;48.832;9.126;2022-07-23T12:37:34;98252.09;;;29.89;50.81
19108;BME280;9686;48.832;9.126;2022-07-23T12:42:45;98246.56;;;30.02;49.96
19108;BME280;9686;48.832;9.126;2022-07-23T12:45:11;98254.31;;;30.16;49.55
19108;BME280;9686;48.832;9.126;2022-07-23T12:48:19;98262.06;;;30.10;49.22
19108;BME280;9686;48.832;9.126;2022-07-23T12:53:31;98253.19;;;29.98;46.87
19108;BME280;9686;48.832;9.126;2022-07-23T12:56:10;98261.28;;;29.87;45.74
19108;BME280;9686;48.832;9.126;2022-07-23T13:04:15;98255.25;;;29.73;46.85
19108;BME280;9686;48.832;9.126;2022-07-23T13:06:42;98264.94;;;29.86;46.47
19108;BME280;9686;48.832;9.126;2022-07-23T13:09:12;98268.16;;;29.80;46.13
19108;BME280;9686;48.832;9.126;2022-07-23T13:11:38;98266.59;;;29.66;48.00
19108;BME280;9686;48.832;9.126;2022-07-23T13:14:04;98260.47;;;29.75;46.67
19108;BME280;9686;48.832;9.126;2022-07-23T13:16:30;98262.91;;;29.78;46.99
19108;BME280;9686;48.832;9.126;2022-07-23T13:18:57;98267.38;;;29.89;46.89
19108;BME280;9686;48.832;9.126;2022-07-23T13:21:23;98259.22;;;30.11;47.54
19108;BME280;9686;48.832;9.126;2022-07-23T13:23:48;98258.72;;;30.17;47.68
19108;BME280;9686;48.832;9.126;2022-07-23T13:26:14;98264.34;;;30.14;47.53
19108;BME280;9686;48.832;9.126;2022-07-23T13:28:39;98267.16;;;30.13;48.77
19108;BME280;9686;48.832;9.126;2022-07-23T13:31:05;98264.47;;;30.13;47.16
19108;BME280;9686;48.832;9.126;2022-07-23T13:33:30;98250.44;;;30.30;47.18
19108;BME280;9686;48.832;9.126;2022-07-23T13:35:56;98257.59;;;30.41;46.35
19108;BME280;9686;48.832;9.126;2022-07-23T13:38:21;98253.28;;;30.28;46.27
19108;BME280;9686;48.832;9.126;2022-07-23T13:40:49;98258.66;;;30.49;46.66
19108;BME280;9686;48.832;9.126;2022-07-23T13:43:17;98260.75;;;30.46;47.46
19108;BME280;9686;48.832;9.126;2022-07-23T13:45:43;98246.69;;;30.42;47.43
19108;BME280;9686;48.832;9.126;2022-07-23T13:48:10;98248.91;;;30.58;46.50
19108;BME280;9686;48.832;9.126;2022-07-23T13:50:36;98245.13;;;30.91;43.85
19108;BME280;9686;48.832;9.126;2022-07-23T13:53:13;98247.16;;;30.98;44.03